sensor_id;sensor_type;location;lat;lon;timestamp;temperature;humidity
43679;DHT22;29279;50.858;4.392;2023-11-21T00:01:57;12.20;99.90
43679;DHT22;29279;50.858;4.392;2023-11-21T00:04:23;12.30;99.90
43679;DHT22;29279;50.858;4.392;2023-11-21T00:06:49;12.30;99.90
43679;DHT22;29279;50.858;4.392;2023-11-21T00:09:15;12.30;99.90
43679;DHT22;29279;50.858;4.392;2023-11-21T00:11:41;12.20;99.90
43679;DHT22;29279;50.858;4.392;2023-11-21T00:14:07;12.00;99.90
43679;DHT22;29279;50.858;4.392;2023-11-21T00:16:33;12.10;99.90
43679;DHT22;29279;50.858;4.392;2023-11-21T00:18:59;12.00;99.90
43679;DHT22;29279;50.858;4.392;2023-11-21T00:21:25;11.90;99.90
43679;DHT22;29279;50.858;4.392;2023-11-21T00:23:51;11.90;99.90
43679;DHT22;29279;50.858;4.392;2023-11-21T00:26:17;11.90;99.90
43679;DHT22;29279;50.858;4.392;2023-11-21T00:28:42;12.00;99.90
43679;DHT22;29279;50.858;4.392;2023-11-21T00:31:08;12.00;99.90
43679;DHT22;29279;50.858;4.392;2023-11-21T00:33:34;11.90;99.90
43679;DHT22;29279;50.858;4.392;2023-11-21T00:35:59;11.80;99.90
43679;DHT22;29279;50.858;4.392;2023-11-21T00:38:26;11.80;99.90
43679;DHT22;29279;50.858;4.392;2023-11-21T00:40:53;11.80;99.90
43679;DHT22;29279;50.858;4.392;2023-11-21T00:43:22;11.80;99.90
43679;DHT22;29279;50.858;4.392;2023-11-21T00:45:48;11.70;99.90
43679;DHT22;29279;50.858;4.392;2023-11-21T00:48:14;11.60;99.90
43679;DHT22;29279;50.858;4.392;2023-11-21T00:50:40;11.50;99.90
43679;DHT22;29279;50.858;4.392;2023-11-21T00:53:06;11.50;99.90
43679;DHT22;29279;50.858;4.392;2023-11-21T00:55:33;11.50;99.90
43679;DHT22;29279;50.858;4.392;2023-11-21T00:57:58;11.50;99.90
43679;DHT22;29279;50.858;4.392;2023-11-21T01:00:25;11.60;99.90
43679;DHT22;29279;50.858;4.392;2023-11-21T01:02:51;11.50;99.90
43679;DHT22;29279;50.858;4.392;2023-11-21T01:05:17;11.50;99.90
43679;DHT22;29279;50.858;4.392;2023-11-21T01:07:43;11.40;99.90
43679;DHT22;29279;50.858;4.392;2023-11-21T01:10:08;11.30;99.90
43679;DHT22;29279;50.858;4.392;2023-11-21T01:12:36;11.30;99.90
43679;DHT22;29279;50.858;4.392;2023-11-21T01:15:04;11.30;99.90
43679;DHT22;29279;50.858;4.392;2023-11-21T01:17:32;11.30;99.90
43679;DHT22;29279;50.858;4.392;2023-11-21T01:20:00;11.20;99.90
43679;DHT22;29279;50.858;4.392;2023-11-21T01:22:27;11.30;99.90
43679;DHT22;29279;50.858;4.392;2023-11-21T01:24:53;11.30;99.90
43679;DHT22;29279;50.858;4.392;2023-11-21T01:27:20;11.40;99.90
43679;DHT22;29279;50.858;4.392;2023-11-21T01:29:46;11.50;99.90
43679;DHT22;29279;50.858;4.392;2023-11-21T01:32:11;11.50;99.90
43679;DHT22;29279;50.858;4.392;2023-11-21T01:34:37;11.50;99.90
43679;DHT22;29279;50.858;4.392;2023-11-21T01:37:03;11.60;99.90
43679;DHT22;29279;50.858;4.392;2023-11-21T01:39:30;11.70;99.90
43679;DHT22;29279;50.858;4.392;2023-11-21T01:41:57;11.60;99.90
43679;DHT22;29279;50.858;4.392;2023-11-21T01:44:24;11.50;99.90
43679;DHT22;29279;50.858;4.392;2023-11-21T01:46:50;11.60;99.90
43679;DHT22;29279;50.858;4.392;2023-11-21T01:49:16;11.60;99.90
43679;DHT22;29279;50.858;4.392;2023-11-21T01:51:45;11.60;99.90
43679;DHT22;29279;50.858;4.392;2023-11-21T01:54:12;11.70;99.90
43679;DHT22;29279;50.858;4.392;2023-11-21T01:56:38;11.60;99.90
43679;DHT22;29279;50.858;4.392;2023-11-21T01:59:05;11.50;99.90
43679;DHT22;29279;50.858;4.392;2023-11-21T02:01:33;11.50;99.90
43679;DHT22;29279;50.858;4.392;2023-11-21T02:03:58;11.50;99.90
43679;DHT22;29279;50.858;4.392;2023-11-21T02:06:24;11.50;99.90
43679;DHT22;29279;50.858;4.392;2023-11-21T02:08:51;11.50;99.90
43679;DHT22;29279;50.858;4.392;2023-11-21T02:11:17;11.60;99.90
43679;DHT22;29279;50.858;4.392;2023-11-21T02:13:44;11.60;99.90
43679;DHT22;29279;50.858;4.392;2023-11-21T02:16:11;11.60;99.90
43679;DHT22;29279;50.858;4.392;2023-11-21T02:18:38;11.50;99.90
43679;DHT22;29279;50.858;4.392;2023-11-21T02:21:05;11.50;99.90
43679;DHT22;29279;50.858;4.392;2023-11-21T02:23:31;11.50;99.90
43679;DHT22;29279;50.858;4.392;2023-11-21T02:25:56;11.60;99.90
43679;DHT22;29279;50.858;4.392;2023-11-21T02:28:22;11.70;99.90
43679;DHT22;29279;50.858;4.392;2023-11-21T02:30:52;11.80;99.90
43679;DHT22;29279;50.858;4.392;2023-11-21T02:33:22;11.80;99.90
43679;DHT22;29279;50.858;4.392;2023-11-21T02:35:48;11.80;99.90
43679;DHT22;29279;50.858;4.392;2023-11-21T02:38:13;11.80;99.90
43679;DHT22;29279;50.858;4.392;2023-11-21T02:40:42;11.70;99.90
43679;DHT22;29279;50.858;4.392;2023-11-21T02:43:08;11.60;99.90
43679;DHT22;29279;50.858;4.392;2023-11-21T02:45:34;11.50;99.90
43679;DHT22;29279;50.858;4.392;2023-11-21T02:48:00;11.30;99.90
43679;DHT22;29279;50.858;4.392;2023-11-21T02:50:25;11.30;99.90
43679;DHT22;29279;50.858;4.392;2023-11-21T02:52:51;11.30;99.90
43679;DHT22;29279;50.858;4.392;2023-11-21T02:55:17;11.40;99.90
43679;DHT22;29279;50.858;4.392;2023-11-21T02:57:42;11.50;99.90
43679;DHT22;29279;50.858;4.392;2023-11-21T03:00:09;11.60;99.90
43679;DHT22;29279;50.858;4.392;2023-11-21T03:02:40;11.60;99.90
43679;DHT22;29279;50.858;4.392;2023-11-21T03:05:07;11.70;99.90
43679;DHT22;29279;50.858;4.392;2023-11-21T03:07:34;11.70;99.90
43679;DHT22;29279;50.858;4.392;2023-11-21T03:10:00;11.90;99.90
43679;DHT22;29279;50.858;4.392;2023-11-21T03:12:26;12.00;99.90
43679;DHT22;29279;50.858;4.392;2023-11-21T03:14:51;12.00;99.90
43679;DHT22;29279;50.858;4.392;2023-11-21T03:17:17;12.10;99.90
43679;DHT22;29279;50.858;4.392;2023-11-21T03:19:43;12.10;99.90
43679;DHT22;29279;50.858;4.392;2023-11-21T03:22:09;12.10;99.90
43679;DHT22;29279;50.858;4.392;2023-11-21T03:24:35;12.10;99.90
43679;DHT22;29279;50.858;4.392;2023-11-21T03:27:00;12.10;99.90
43679;DHT22;29279;50.858;4.392;2023-11-21T03:29:26;12.10;99.90
43679;DHT22;29279;50.858;4.392;2023-11-21T03:31:52;12.10;99.90
43679;DHT22;29279;50.858;4.392;2023-11-21T03:34:27;12.20;99.90
43679;DHT22;29279;50.858;4.392;2023-11-21T03:36:53;12.20;99.90
43679;DHT22;29279;50.858;4.392;2023-11-21T03:39:22;12.20;99.90
43679;DHT22;29279;50.858;4.392;2023-11-21T03:41:48;12.20;99.90
43679;DHT22;29279;50.858;4.392;2023-11-21T03:44:14;12.20;99.90
43679;DHT22;29279;50.858;4.392;2023-11-21T03:46:40;12.30;99.90
43679;DHT22;29279;50.858;4.392;2023-11-21T03:49:06;12.20;99.90
43679;DHT22;29279;50.858;4.392;2023-11-21T03:51:33;12.20;99.90
43679;DHT22;29279;50.858;4.392;2023-11-21T03:53:59;12.20;99.90
43679;DHT22;29279;50.858;4.392;2023-11-21T03:56:25;12.20;99.90
43679;DHT22;29279;50.858;4.392;2023-11-21T03:58:50;12.10;99.90
43679;DHT22;29279;50.858;4.392;2023-11-21T04:01:23;12.10;99.90
43679;DHT22;29279;50.858;4.392;2023-11-21T04:03:50;12.00;99.90
43679;DHT22;29279;50.858;4.392;2023-11-21T04:06:16;11.90;99.90
43679;DHT22;29279;50.858;4.392;2023-11-21T04:08:43;12.00;99.90
43679;DHT22;29279;50.858;4.392;2023-11-21T04:11:10;12.00;99.90
43679;DHT22;29279;50.858;4.392;2023-11-21T04:13:38;12.10;99.90
43679;DHT22;29279;50.858;4.392;2023-11-21T04:16:08;12.20;99.90
43679;DHT22;29279;50.858;4.392;2023-11-21T04:18:36;12.10;99.90
43679;DHT22;29279;50.858;4.392;2023-11-21T04:21:01;12.10;99.90
43679;DHT22;29279;50.858;4.392;2023-11-21T04:23:28;12.10;99.90
43679;DHT22;29279;50.858;4.392;2023-11-21T04:25:54;12.10;99.90
43679;DHT22;29279;50.858;4.392;2023-11-21T04:28:22;12.10;99.90
43679;DHT22;29279;50.858;4.392;2023-11-21T04:30:48;12.10;99.90
43679;DHT22;29279;50.858;4.392;2023-11-21T04:33:14;11.90;99.90
43679;DHT22;29279;50.858;4.392;2023-11-21T04:35:40;11.90;99.90
43679;DHT22;29279;50.858;4.392;2023-11-21T04:38:05;12.00;99.90
43679;DHT22;29279;50.858;4.392;2023-11-21T04:40:31;12.00;99.90
43679;DHT22;29279;50.858;4.392;2023-11-21T04:42:56;12.10;99.90
43679;DHT22;29279;50.858;4.392;2023-11-21T04:45:22;12.10;99.90
43679;DHT22;29279;50.858;4.392;2023-11-21T04:47:48;12.10;99.90
43679;DHT22;29279;50.858;4.392;2023-11-21T04:50:14;12.10;99.90
43679;DHT22;29279;50.858;4.392;2023-11-21T04:52:39;12.10;99.90
43679;DHT22;29279;50.858;4.392;2023-11-21T04:55:05;12.10;99.90
43679;DHT22;29279;50.858;4.392;2023-11-21T04:57:38;12.10;99.90
43679;DHT22;29279;50.858;4.392;2023-11-21T05:00:04;12.10;99.90
43679;DHT22;29279;50.858;4.392;2023-11-21T05:02:32;12.10;99.90
43679;DHT22;29279;50.858;4.392;2023-11-21T05:04:59;12.20;99.90
43679;DHT22;29279;50.858;4.392;2023-11-21T05:07:25;12.10;99.90
43679;DHT22;29279;50.858;4.392;2023-11-21T05:09:54;12.20;99.90
43679;DHT22;29279;50.858;4.392;2023-11-21T05:12:21;12.20;99.90
43679;DHT22;29279;50.858;4.392;2023-11-21T05:14:49;12.20;99.90
43679;DHT22;29279;50.858;4.392;2023-11-21T05:17:14;12.30;99.90
43679;DHT22;29279;50.858;4.392;2023-11-21T05:19:40;12.30;99.90
43679;DHT22;29279;50.858;4.392;2023-11-21T05:22:06;12.30;99.90
43679;DHT22;29279;50.858;4.392;2023-11-21T05:24:33;12.40;99.90
43679;DHT22;29279;50.858;4.392;2023-11-21T05:26:59;12.40;99.90
43679;DHT22;29279;50.858;4.392;2023-11-21T05:29:25;12.40;99.90
43679;DHT22;29279;50.858;4.392;2023-11-21T05:31:51;12.20;99.90
43679;DHT22;29279;50.858;4.392;2023-11-21T05:34:17;12.30;99.90
43679;DHT22;29279;50.858;4.392;2023-11-21T05:36:45;12.30;99.90
43679;DHT22;29279;50.858;4.392;2023-11-21T05:39:11;12.30;99.90
43679;DHT22;29279;50.858;4.392;2023-11-21T05:41:37;12.30;99.90
43679;DHT22;29279;50.858;4.392;2023-11-21T05:44:03;12.20;99.90
43679;DHT22;29279;50.858;4.392;2023-11-21T05:46:28;12.20;99.90
43679;DHT22;29279;50.858;4.392;2023-11-21T05:48:54;12.30;99.90
43679;DHT22;29279;50.858;4.392;2023-11-21T05:51:20;12.30;99.90
43679;DHT22;29279;50.858;4.392;2023-11-21T05:53:46;12.30;99.90
43679;DHT22;29279;50.858;4.392;2023-11-21T05:56:12;12.20;99.90
43679;DHT22;29279;50.858;4.392;2023-11-21T05:58:39;12.10;99.90
43679;DHT22;29279;50.858;4.392;2023-11-21T06:01:05;12.20;99.90
43679;DHT22;29279;50.858;4.392;2023-11-21T06:03:38;12.30;99.90
43679;DHT22;29279;50.858;4.392;2023-11-21T06:06:04;12.30;99.90
43679;DHT22;29279;50.858;4.392;2023-11-21T06:08:30;12.30;99.90
43679;DHT22;29279;50.858;4.392;2023-11-21T06:10:56;12.20;99.90
43679;DHT22;29279;50.858;4.392;2023-11-21T06:13:21;12.30;99.90
43679;DHT22;29279;50.858;4.392;2023-11-21T06:15:52;12.30;99.90
43679;DHT22;29279;50.858;4.392;2023-11-21T06:18:18;12.40;99.90
43679;DHT22;29279;50.858;4.392;2023-11-21T06:20:45;12.40;99.90
43679;DHT22;29279;50.858;4.392;2023-11-21T06:23:11;12.50;99.90
43679;DHT22;29279;50.858;4.392;2023-11-21T06:25:37;12.50;99.90
43679;DHT22;29279;50.858;4.392;2023-11-21T06:28:03;12.50;99.90
43679;DHT22;29279;50.858;4.392;2023-11-21T06:30:29;12.50;99.90
43679;DHT22;29279;50.858;4.392;2023-11-21T06:32:59;12.50;99.90
43679;DHT22;29279;50.858;4.392;2023-11-21T06:35:25;12.50;99.90
43679;DHT22;29279;50.858;4.392;2023-11-21T06:37:53;12.50;99.90
43679;DHT22;29279;50.858;4.392;2023-11-21T06:40:19;12.50;99.90
43679;DHT22;29279;50.858;4.392;2023-11-21T06:42:44;12.50;99.90
43679;DHT22;29279;50.858;4.392;2023-11-21T06:45:12;12.60;99.90
43679;DHT22;29279;50.858;4.392;2023-11-21T06:47:38;12.60;99.90
43679;DHT22;29279;50.858;4.392;2023-11-21T06:50:05;12.60;99.90
43679;DHT22;29279;50.858;4.392;2023-11-21T06:52:32;12.60;99.90
43679;DHT22;29279;50.858;4.392;2023-11-21T06:54:58;12.70;99.90
43679;DHT22;29279;50.858;4.392;2023-11-21T06:57:24;12.70;99.90
43679;DHT22;29279;50.858;4.392;2023-11-21T06:59:49;12.70;99.90
43679;DHT22;29279;50.858;4.392;2023-11-21T07:02:18;12.70;99.90
43679;DHT22;29279;50.858;4.392;2023-11-21T07:04:45;12.60;99.90
43679;DHT22;29279;50.858;4.392;2023-11-21T07:07:11;12.60;99.90
43679;DHT22;29279;50.858;4.392;2023-11-21T07:09:37;12.60;99.90
43679;DHT22;29279;50.858;4.392;2023-11-21T07:12:03;12.60;99.90
43679;DHT22;29279;50.858;4.392;2023-11-21T07:14:31;12.60;99.90
43679;DHT22;29279;50.858;4.392;2023-11-21T07:16:57;12.70;99.90
43679;DHT22;29279;50.858;4.392;2023-11-21T07:19:23;12.70;99.90
43679;DHT22;29279;50.858;4.392;2023-11-21T07:21:49;12.70;99.90
43679;DHT22;29279;50.858;4.392;2023-11-21T07:24:17;12.70;99.90
43679;DHT22;29279;50.858;4.392;2023-11-21T07:26:43;12.70;99.90
43679;DHT22;29279;50.858;4.392;2023-11-21T07:29:09;12.80;99.90
43679;DHT22;29279;50.858;4.392;2023-11-21T07:31:34;12.80;99.90
43679;DHT22;29279;50.858;4.392;2023-11-21T07:34:00;12.80;99.90
43679;DHT22;29279;50.858;4.392;2023-11-21T07:36:26;12.80;99.90
43679;DHT22;29279;50.858;4.392;2023-11-21T07:38:53;12.70;99.90
43679;DHT22;29279;50.858;4.392;2023-11-21T07:41:19;12.70;99.90
43679;DHT22;29279;50.858;4.392;2023-11-21T07:43:46;12.60;99.90
43679;DHT22;29279;50.858;4.392;2023-11-21T07:46:12;12.60;99.90
43679;DHT22;29279;50.858;4.392;2023-11-21T07:48:39;12.50;99.90
43679;DHT22;29279;50.858;4.392;2023-11-21T07:51:05;12.60;99.90
43679;DHT22;29279;50.858;4.392;2023-11-21T07:53:32;12.50;99.90
43679;DHT22;29279;50.858;4.392;2023-11-21T07:56:08;12.60;99.90
43679;DHT22;29279;50.858;4.392;2023-11-21T07:58:37;12.60;99.90
43679;DHT22;29279;50.858;4.392;2023-11-21T08:01:03;12.70;99.90
43679;DHT22;29279;50.858;4.392;2023-11-21T08:03:30;12.70;99.90
43679;DHT22;29279;50.858;4.392;2023-11-21T08:05:57;12.70;99.90
43679;DHT22;29279;50.858;4.392;2023-11-21T08:08:23;12.80;99.90
43679;DHT22;29279;50.858;4.392;2023-11-21T08:10:49;12.80;99.90
43679;DHT22;29279;50.858;4.392;2023-11-21T08:13:25;12.80;99.90
43679;DHT22;29279;50.858;4.392;2023-11-21T08:15:53;12.80;99.90
43679;DHT22;29279;50.858;4.392;2023-11-21T08:18:19;12.80;99.90
43679;DHT22;29279;50.858;4.392;2023-11-21T08:20:45;12.80;99.90
43679;DHT22;29279;50.858;4.392;2023-11-21T08:23:16;12.90;99.90
43679;DHT22;29279;50.858;4.392;2023-11-21T08:25:43;12.90;99.90
43679;DHT22;29279;50.858;4.392;2023-11-21T08:28:09;13.00;99.90
43679;DHT22;29279;50.858;4.392;2023-11-21T08:30:35;12.90;99.90
43679;DHT22;29279;50.858;4.392;2023-11-21T08:33:01;12.90;99.90
43679;DHT22;29279;50.858;4.392;2023-11-21T08:35:28;12.90;99.90
43679;DHT22;29279;50.858;4.392;2023-11-21T08:37:54;12.90;99.90
43679;DHT22;29279;50.858;4.392;2023-11-21T08:40:20;13.00;99.90
43679;DHT22;29279;50.858;4.392;2023-11-21T08:42:47;13.10;99.90
43679;DHT22;29279;50.858;4.392;2023-11-21T08:45:16;13.10;99.90
43679;DHT22;29279;50.858;4.392;2023-11-21T08:47:43;13.10;99.90
43679;DHT22;29279;50.858;4.392;2023-11-21T08:50:12;13.00;99.90
43679;DHT22;29279;50.858;4.392;2023-11-21T08:52:41;13.10;99.90
43679;DHT22;29279;50.858;4.392;2023-11-21T08:55:10;13.10;99.90
43679;DHT22;29279;50.858;4.392;2023-11-21T08:57:38;13.10;99.90
43679;DHT22;29279;50.858;4.392;2023-11-21T09:00:09;13.10;99.90
43679;DHT22;29279;50.858;4.392;2023-11-21T09:02:45;13.10;99.90
43679;DHT22;29279;50.858;4.392;2023-11-21T09:05:12;13.10;99.90
43679;DHT22;29279;50.858;4.392;2023-11-21T09:07:40;13.10;99.90
43679;DHT22;29279;50.858;4.392;2023-11-21T09:10:07;13.10;99.90
43679;DHT22;29279;50.858;4.392;2023-11-21T09:12:35;13.10;99.90
43679;DHT22;29279;50.858;4.392;2023-11-21T09:15:05;13.10;99.90
43679;DHT22;29279;50.858;4.392;2023-11-21T09:17:34;13.20;99.90
43679;DHT22;29279;50.858;4.392;2023-11-21T09:20:00;13.20;99.90
43679;DHT22;29279;50.858;4.392;2023-11-21T09:22:25;13.20;99.90
43679;DHT22;29279;50.858;4.392;2023-11-21T09:24:52;13.20;99.90
43679;DHT22;29279;50.858;4.392;2023-11-21T09:27:18;13.20;99.90
43679;DHT22;29279;50.858;4.392;2023-11-21T09:29:44;13.20;99.90
43679;DHT22;29279;50.858;4.392;2023-11-21T09:32:10;13.20;99.90
43679;DHT22;29279;50.858;4.392;2023-11-21T09:34:39;13.20;99.90
43679;DHT22;29279;50.858;4.392;2023-11-21T09:37:06;13.30;99.90
43679;DHT22;29279;50.858;4.392;2023-11-21T09:39:32;13.30;99.90
43679;DHT22;29279;50.858;4.392;2023-11-21T09:42:12;13.30;99.90
43679;DHT22;29279;50.858;4.392;2023-11-21T09:45:08;13.40;99.90
43679;DHT22;29279;50.858;4.392;2023-11-21T09:47:38;13.40;99.90
43679;DHT22;29279;50.858;4.392;2023-11-21T09:50:05;13.40;99.90
43679;DHT22;29279;50.858;4.392;2023-11-21T09:55:26;13.50;99.90
43679;DHT22;29279;50.858;4.392;2023-11-21T09:57:55;13.50;99.90
43679;DHT22;29279;50.858;4.392;2023-11-21T10:00:22;13.50;99.90
43679;DHT22;29279;50.858;4.392;2023-11-21T10:02:49;13.50;99.90
43679;DHT22;29279;50.858;4.392;2023-11-21T10:05:16;13.60;99.90
43679;DHT22;29279;50.858;4.392;2023-11-21T10:07:46;13.60;99.90
43679;DHT22;29279;50.858;4.392;2023-11-21T10:10:13;13.50;99.90
43679;DHT22;29279;50.858;4.392;2023-11-21T10:12:41;13.50;99.90
43679;DHT22;29279;50.858;4.392;2023-11-21T10:15:08;13.50;99.90
43679;DHT22;29279;50.858;4.392;2023-11-21T10:17:38;13.50;99.90
43679;DHT22;29279;50.858;4.392;2023-11-21T10:20:11;13.50;99.90
43679;DHT22;29279;50.858;4.392;2023-11-21T10:22:42;13.40;99.90
43679;DHT22;29279;50.858;4.392;2023-11-21T10:25:09;13.50;99.90
43679;DHT22;29279;50.858;4.392;2023-11-21T10:27:36;13.50;99.90
43679;DHT22;29279;50.858;4.392;2023-11-21T10:30:05;13.60;99.90
43679;DHT22;29279;50.858;4.392;2023-11-21T10:32:30;13.60;99.90
43679;DHT22;29279;50.858;4.392;2023-11-21T10:34:59;13.70;99.90
43679;DHT22;29279;50.858;4.392;2023-11-21T10:37:32;13.80;99.90
43679;DHT22;29279;50.858;4.392;2023-11-21T10:39:59;13.90;99.90
43679;DHT22;29279;50.858;4.392;2023-11-21T10:42:24;14.00;99.90
43679;DHT22;29279;50.858;4.392;2023-11-21T10:44:51;14.00;99.90
43679;DHT22;29279;50.858;4.392;2023-11-21T10:47:17;14.00;99.90
43679;DHT22;29279;50.858;4.392;2023-11-21T10:49:44;14.00;99.90
43679;DHT22;29279;50.858;4.392;2023-11-21T10:52:13;14.00;99.90
43679;DHT22;29279;50.858;4.392;2023-11-21T10:54:43;14.10;99.90
43679;DHT22;29279;50.858;4.392;2023-11-21T10:57:10;14.10;99.90
43679;DHT22;29279;50.858;4.392;2023-11-21T10:59:36;14.10;99.90
43679;DHT22;29279;50.858;4.392;2023-11-21T11:02:28;14.10;99.90
43679;DHT22;29279;50.858;4.392;2023-11-21T11:04:58;14.10;99.90
43679;DHT22;29279;50.858;4.392;2023-11-21T11:07:27;14.10;99.90
43679;DHT22;29279;50.858;4.392;2023-11-21T11:09:58;14.20;99.90
43679;DHT22;29279;50.858;4.392;2023-11-21T11:12:25;14.20;99.90
43679;DHT22;29279;50.858;4.392;2023-11-21T11:14:51;14.20;99.90
43679;DHT22;29279;50.858;4.392;2023-11-21T11:17:19;14.30;99.90
43679;DHT22;29279;50.858;4.392;2023-11-21T11:19:47;14.30;99.90
43679;DHT22;29279;50.858;4.392;2023-11-21T11:22:16;14.20;99.90
43679;DHT22;29279;50.858;4.392;2023-11-21T11:28:06;14.30;99.90
43679;DHT22;29279;50.858;4.392;2023-11-21T11:30:41;14.30;99.90
43679;DHT22;29279;50.858;4.392;2023-11-21T11:36:08;14.40;99.90
43679;DHT22;29279;50.858;4.392;2023-11-21T11:38:37;14.50;99.90
43679;DHT22;29279;50.858;4.392;2023-11-21T11:41:04;14.60;99.90
43679;DHT22;29279;50.858;4.392;2023-11-21T11:43:30;14.70;99.90
43679;DHT22;29279;50.858;4.392;2023-11-21T11:45:59;14.70;99.90
43679;DHT22;29279;50.858;4.392;2023-11-21T11:48:25;14.60;99.90
43679;DHT22;29279;50.858;4.392;2023-11-21T11:51:10;14.50;99.90
43679;DHT22;29279;50.858;4.392;2023-11-21T11:53:45;14.50;99.90
43679;DHT22;29279;50.858;4.392;2023-11-21T11:58:48;14.50;99.90
43679;DHT22;29279;50.858;4.392;2023-11-21T12:01:13;14.40;99.90
43679;DHT22;29279;50.858;4.392;2023-11-21T12:03:41;14.30;99.90
43679;DHT22;29279;50.858;4.392;2023-11-21T12:06:07;14.30;99.90
43679;DHT22;29279;50.858;4.392;2023-11-21T12:08:35;14.10;99.90
43679;DHT22;29279;50.858;4.392;2023-11-21T12:11:01;14.20;99.90
43679;DHT22;29279;50.858;4.392;2023-11-21T12:13:28;14.20;99.90
43679;DHT22;29279;50.858;4.392;2023-11-21T12:15:54;14.20;99.90
43679;DHT22;29279;50.858;4.392;2023-11-21T12:18:21;14.20;99.90
43679;DHT22;29279;50.858;4.392;2023-11-21T12:20:46;14.30;99.90
43679;DHT22;29279;50.858;4.392;2023-11-21T12:23:14;14.30;99.90
43679;DHT22;29279;50.858;4.392;2023-11-21T12:25:42;14.30;99.90
43679;DHT22;29279;50.858;4.392;2023-11-21T12:28:08;14.30;99.90
43679;DHT22;29279;50.858;4.392;2023-11-21T12:30:35;14.30;99.90
43679;DHT22;29279;50.858;4.392;2023-11-21T12:33:02;14.30;99.90
43679;DHT22;29279;50.858;4.392;2023-11-21T12:35:30;14.30;99.90
43679;DHT22;29279;50.858;4.392;2023-11-21T12:37:57;14.30;99.90
43679;DHT22;29279;50.858;4.392;2023-11-21T12:40:23;14.20;99.90
43679;DHT22;29279;50.858;4.392;2023-11-21T12:42:51;14.30;99.90
43679;DHT22;29279;50.858;4.392;2023-11-21T12:45:25;14.30;99.90
43679;DHT22;29279;50.858;4.392;2023-11-21T12:48:05;14.40;99.90
43679;DHT22;29279;50.858;4.392;2023-11-21T12:50:34;14.60;99.90
43679;DHT22;29279;50.858;4.392;2023-11-21T12:53:06;14.70;99.90
43679;DHT22;29279;50.858;4.392;2023-11-21T12:55:35;14.70;99.90
43679;DHT22;29279;50.858;4.392;2023-11-21T12:58:08;14.70;99.90
43679;DHT22;29279;50.858;4.392;2023-11-21T13:03:06;14.60;99.90
43679;DHT22;29279;50.858;4.392;2023-11-21T13:05:34;14.60;99.90
43679;DHT22;29279;50.858;4.392;2023-11-21T13:08:02;14.50;99.90
43679;DHT22;29279;50.858;4.392;2023-11-21T13:10:30;14.50;99.90
43679;DHT22;29279;50.858;4.392;2023-11-21T13:13:00;14.30;99.90
43679;DHT22;29279;50.858;4.392;2023-11-21T13:15:28;14.30;99.90
43679;DHT22;29279;50.858;4.392;2023-11-21T13:17:54;14.30;99.90
43679;DHT22;29279;50.858;4.392;2023-11-21T13:20:21;14.20;99.90
43679;DHT22;29279;50.858;4.392;2023-11-21T13:22:50;14.10;99.90
43679;DHT22;29279;50.858;4.392;2023-11-21T13:25:28;14.10;99.90
43679;DHT22;29279;50.858;4.392;2023-11-21T13:27:54;14.10;99.90
43679;DHT22;29279;50.858;4.392;2023-11-21T13:30:21;14.00;99.90
43679;DHT22;29279;50.858;4.392;2023-11-21T13:32:59;14.00;99.90
43679;DHT22;29279;50.858;4.392;2023-11-21T13:35:31;14.00;99.90
43679;DHT22;29279;50.858;4.392;2023-11-21T13:38:17;14.00;99.90
43679;DHT22;29279;50.858;4.392;2023-11-21T13:40:51;14.00;99.90
43679;DHT22;29279;50.858;4.392;2023-11-21T13:43:21;14.10;99.90
43679;DHT22;29279;50.858;4.392;2023-11-21T13:45:49;14.30;99.90
43679;DHT22;29279;50.858;4.392;2023-11-21T13:48:25;14.20;99.90
43679;DHT22;29279;50.858;4.392;2023-11-21T13:50:57;14.20;99.90
43679;DHT22;29279;50.858;4.392;2023-11-21T13:53:44;14.20;99.90
43679;DHT22;29279;50.858;4.392;2023-11-21T13:56:11;14.00;99.90
43679;DHT22;29279;50.858;4.392;2023-11-21T13:58:38;13.90;99.90
43679;DHT22;29279;50.858;4.392;2023-11-21T14:01:17;13.90;99.90
43679;DHT22;29279;50.858;4.392;2023-11-21T14:03:59;13.90;99.90
43679;DHT22;29279;50.858;4.392;2023-11-21T14:06:38;13.80;99.90
43679;DHT22;29279;50.858;4.392;2023-11-21T14:09:18;13.70;99.90
43679;DHT22;29279;50.858;4.392;2023-11-21T14:11:52;13.70;99.90
43679;DHT22;29279;50.858;4.392;2023-11-21T14:14:25;13.60;99.90
43679;DHT22;29279;50.858;4.392;2023-11-21T14:16:51;13.60;99.90
43679;DHT22;29279;50.858;4.392;2023-11-21T14:19:18;13.50;99.90
43679;DHT22;29279;50.858;4.392;2023-11-21T14:21:44;13.40;99.90
43679;DHT22;29279;50.858;4.392;2023-11-21T14:24:14;13.30;99.90
43679;DHT22;29279;50.858;4.392;2023-11-21T14:26:41;13.20;99.90
43679;DHT22;29279;50.858;4.392;2023-11-21T14:29:08;13.10;99.90
43679;DHT22;29279;50.858;4.392;2023-11-21T14:31:35;13.20;99.90
43679;DHT22;29279;50.858;4.392;2023-11-21T14:34:01;13.30;99.90
43679;DHT22;29279;50.858;4.392;2023-11-21T14:36:28;13.30;99.90
43679;DHT22;29279;50.858;4.392;2023-11-21T14:38:54;13.30;99.90
43679;DHT22;29279;50.858;4.392;2023-11-21T14:41:19;13.40;99.90
43679;DHT22;29279;50.858;4.392;2023-11-21T14:43:45;13.50;99.90
43679;DHT22;29279;50.858;4.392;2023-11-21T14:46:15;13.40;99.90
43679;DHT22;29279;50.858;4.392;2023-11-21T14:48:42;13.40;99.90
43679;DHT22;29279;50.858;4.392;2023-11-21T14:51:11;13.40;99.90
43679;DHT22;29279;50.858;4.392;2023-11-21T14:53:59;13.40;99.90
43679;DHT22;29279;50.858;4.392;2023-11-21T14:56:35;13.40;99.90
43679;DHT22;29279;50.858;4.392;2023-11-21T14:59:03;13.30;99.90
43679;DHT22;29279;50.858;4.392;2023-11-21T15:01:38;13.30;99.90
43679;DHT22;29279;50.858;4.392;2023-11-21T15:04:21;13.30;99.90
43679;DHT22;29279;50.858;4.392;2023-11-21T15:06:59;13.30;99.90
43679;DHT22;29279;50.858;4.392;2023-11-21T15:09:25;13.20;99.90
43679;DHT22;29279;50.858;4.392;2023-11-21T15:12:03;13.20;99.90
43679;DHT22;29279;50.858;4.392;2023-11-21T15:14:45;13.20;99.90
43679;DHT22;29279;50.858;4.392;2023-11-21T15:17:14;13.20;99.90
43679;DHT22;29279;50.858;4.392;2023-11-21T15:19:53;13.20;99.90
43679;DHT22;29279;50.858;4.392;2023-11-21T15:22:19;13.30;99.90
43679;DHT22;29279;50.858;4.392;2023-11-21T15:24:45;13.30;99.90
43679;DHT22;29279;50.858;4.392;2023-11-21T15:27:15;13.20;99.90
43679;DHT22;29279;50.858;4.392;2023-11-21T15:29:42;13.20;99.90
43679;DHT22;29279;50.858;4.392;2023-11-21T15:32:08;13.20;99.90
43679;DHT22;29279;50.858;4.392;2023-11-21T15:34:35;13.20;99.90
43679;DHT22;29279;50.858;4.392;2023-11-21T15:37:01;13.10;99.90
43679;DHT22;29279;50.858;4.392;2023-11-21T15:39:28;13.10;99.90
43679;DHT22;29279;50.858;4.392;2023-11-21T15:41:56;13.00;99.90
43679;DHT22;29279;50.858;4.392;2023-11-21T15:44:22;13.00;99.90
43679;DHT22;29279;50.858;4.392;2023-11-21T15:46:49;13.00;99.90
43679;DHT22;29279;50.858;4.392;2023-11-21T15:49:14;13.00;99.90